Sibiu, Romania
Current Conditions -  °F | °C
As of 6:00 PM on Monday 24 Nov 2014 (Local Time) from LRSB Reporting Station
Overcast Overcast  
Wind Chill: 31°   Ceiling: 3800
Heat Index: 37°   Visibility: 6mi
Dew Point: 32°   Wind: 9mph
Humidity: 81%   Direction: 110°ESE
Pressure: 30.36"   Gusts: NA
Location:  45.79°N, 24.13°E
Report Text: LRSB 241500Z 11008KT 9999 SCT020 BKN038 OVC073 03/M00 Q1028
Loading
Personal Weather Stations






























Interactive Weather Map New forecast layout! Learn more

10-Day Weather Forecast

Advertisements
Track Severe Weather on mobile